sensor_id;sensor_type;location;lat;lon;timestamp;P1;durP1;ratioP1;P2;durP2;ratioP2
23388;SDS011;11867;51.198;11.966;2023-08-21T00:00:57;24.05;;;19.92;;
23388;SDS011;11867;51.198;11.966;2023-08-21T00:02:22;21.10;;;18.88;;
23388;SDS011;11867;51.198;11.966;2023-08-21T00:03:58;20.38;;;18.30;;
23388;SDS011;11867;51.198;11.966;2023-08-21T00:05:34;22.48;;;18.50;;
23388;SDS011;11867;51.198;11.966;2023-08-21T00:07:23;21.65;;;19.48;;
23388;SDS011;11867;51.198;11.966;2023-08-21T00:08:53;24.13;;;20.45;;
23388;SDS011;11867;51.198;11.966;2023-08-21T00:10:25;21.40;;;19.20;;
23388;SDS011;11867;51.198;11.966;2023-08-21T00:11:53;20.75;;;18.75;;
23388;SDS011;11867;51.198;11.966;2023-08-21T00:13:19;20.92;;;18.73;;
23388;SDS011;11867;51.198;11.966;2023-08-21T00:14:57;22.13;;;18.95;;
23388;SDS011;11867;51.198;11.966;2023-08-21T00:16:23;22.02;;;19.58;;
23388;SDS011;11867;51.198;11.966;2023-08-21T00:17:45;22.58;;;18.35;;
23388;SDS011;11867;51.198;11.966;2023-08-21T00:19:13;25.35;;;18.60;;
23388;SDS011;11867;51.198;11.966;2023-08-21T00:20:44;20.80;;;18.40;;
23388;SDS011;11867;51.198;11.966;2023-08-21T00:22:16;22.90;;;19.48;;
23388;SDS011;11867;51.198;11.966;2023-08-21T00:23:41;20.48;;;17.73;;
23388;SDS011;11867;51.198;11.966;2023-08-21T00:25:10;19.65;;;17.20;;
23388;SDS011;11867;51.198;11.966;2023-08-21T00:26:41;20.02;;;17.90;;
23388;SDS011;11867;51.198;11.966;2023-08-21T00:28:11;20.75;;;18.55;;
23388;SDS011;11867;51.198;11.966;2023-08-21T00:29:36;19.35;;;16.15;;
23388;SDS011;11867;51.198;11.966;2023-08-21T00:31:12;17.20;;;15.55;;
23388;SDS011;11867;51.198;11.966;2023-08-21T00:32:47;19.15;;;17.25;;
23388;SDS011;11867;51.198;11.966;2023-08-21T00:34:09;18.63;;;16.73;;
23388;SDS011;11867;51.198;11.966;2023-08-21T00:35:42;19.20;;;17.20;;
23388;SDS011;11867;51.198;11.966;2023-08-21T00:37:10;19.58;;;17.15;;
23388;SDS011;11867;51.198;11.966;2023-08-21T00:38:53;19.10;;;16.45;;
23388;SDS011;11867;51.198;11.966;2023-08-21T00:40:19;18.60;;;16.83;;
23388;SDS011;11867;51.198;11.966;2023-08-21T00:41:48;23.38;;;16.63;;
23388;SDS011;11867;51.198;11.966;2023-08-21T00:43:21;19.30;;;17.50;;
23388;SDS011;11867;51.198;11.966;2023-08-21T00:44:54;18.48;;;16.70;;
23388;SDS011;11867;51.198;11.966;2023-08-21T00:46:16;18.58;;;16.52;;
23388;SDS011;11867;51.198;11.966;2023-08-21T00:47:45;19.95;;;18.00;;
23388;SDS011;11867;51.198;11.966;2023-08-21T00:49:15;19.15;;;16.50;;
23388;SDS011;11867;51.198;11.966;2023-08-21T00:50:48;19.27;;;17.38;;
23388;SDS011;11867;51.198;11.966;2023-08-21T00:52:44;19.45;;;16.52;;
23388;SDS011;11867;51.198;11.966;2023-08-21T00:54:27;18.98;;;17.08;;
23388;SDS011;11867;51.198;11.966;2023-08-21T00:56:03;18.95;;;16.90;;
23388;SDS011;11867;51.198;11.966;2023-08-21T00:57:36;20.08;;;17.10;;
23388;SDS011;11867;51.198;11.966;2023-08-21T00:59:07;19.08;;;17.23;;
23388;SDS011;11867;51.198;11.966;2023-08-21T01:00:56;20.58;;;17.60;;
23388;SDS011;11867;51.198;11.966;2023-08-21T01:02:35;30.65;;;19.45;;
23388;SDS011;11867;51.198;11.966;2023-08-21T01:04:11;20.30;;;18.38;;
23388;SDS011;11867;51.198;11.966;2023-08-21T01:05:57;22.98;;;18.15;;
23388;SDS011;11867;51.198;11.966;2023-08-21T01:07:23;22.20;;;19.83;;
23388;SDS011;11867;51.198;11.966;2023-08-21T01:09:13;25.38;;;19.55;;
23388;SDS011;11867;51.198;11.966;2023-08-21T01:10:56;23.25;;;19.98;;
23388;SDS011;11867;51.198;11.966;2023-08-21T01:12:29;23.05;;;20.58;;
23388;SDS011;11867;51.198;11.966;2023-08-21T01:15:36;21.45;;;19.38;;
23388;SDS011;11867;51.198;11.966;2023-08-21T01:17:05;23.52;;;19.85;;
23388;SDS011;11867;51.198;11.966;2023-08-21T01:18:42;22.27;;;19.38;;
23388;SDS011;11867;51.198;11.966;2023-08-21T01:20:14;26.38;;;21.75;;
23388;SDS011;11867;51.198;11.966;2023-08-21T01:21:48;22.00;;;19.80;;
23388;SDS011;11867;51.198;11.966;2023-08-21T01:23:30;22.00;;;19.80;;
23388;SDS011;11867;51.198;11.966;2023-08-21T01:25:09;24.08;;;20.42;;
23388;SDS011;11867;51.198;11.966;2023-08-21T01:26:35;21.45;;;19.35;;
23388;SDS011;11867;51.198;11.966;2023-08-21T01:28:10;19.98;;;18.02;;
23388;SDS011;11867;51.198;11.966;2023-08-21T01:29:35;19.40;;;17.58;;
23388;SDS011;11867;51.198;11.966;2023-08-21T01:31:08;27.45;;;20.38;;
23388;SDS011;11867;51.198;11.966;2023-08-21T01:32:37;20.60;;;18.33;;
23388;SDS011;11867;51.198;11.966;2023-08-21T01:34:09;20.90;;;18.90;;
23388;SDS011;11867;51.198;11.966;2023-08-21T01:35:37;19.95;;;17.85;;
23388;SDS011;11867;51.198;11.966;2023-08-21T01:37:31;21.50;;;19.40;;
23388;SDS011;11867;51.198;11.966;2023-08-21T01:39:09;21.80;;;19.45;;
23388;SDS011;11867;51.198;11.966;2023-08-21T01:40:37;20.20;;;18.23;;
23388;SDS011;11867;51.198;11.966;2023-08-21T01:42:06;19.60;;;17.45;;
23388;SDS011;11867;51.198;11.966;2023-08-21T01:43:33;21.23;;;18.95;;
23388;SDS011;11867;51.198;11.966;2023-08-21T01:45:11;21.83;;;17.95;;
23388;SDS011;11867;51.198;11.966;2023-08-21T01:46:38;20.63;;;18.50;;
23388;SDS011;11867;51.198;11.966;2023-08-21T01:48:06;22.77;;;18.10;;
23388;SDS011;11867;51.198;11.966;2023-08-21T01:49:42;19.83;;;17.55;;
23388;SDS011;11867;51.198;11.966;2023-08-21T01:51:09;21.15;;;18.88;;
23388;SDS011;11867;51.198;11.966;2023-08-21T01:52:34;21.55;;;18.58;;
23388;SDS011;11867;51.198;11.966;2023-08-21T01:54:04;21.42;;;17.98;;
23388;SDS011;11867;51.198;11.966;2023-08-21T01:55:36;21.10;;;18.88;;
23388;SDS011;11867;51.198;11.966;2023-08-21T01:57:06;22.45;;;18.75;;
23388;SDS011;11867;51.198;11.966;2023-08-21T01:58:32;20.98;;;18.08;;
23388;SDS011;11867;51.198;11.966;2023-08-21T02:00:06;21.38;;;17.73;;
23388;SDS011;11867;51.198;11.966;2023-08-21T02:01:41;19.50;;;16.88;;
23388;SDS011;11867;51.198;11.966;2023-08-21T02:03:06;20.80;;;18.00;;
23388;SDS011;11867;51.198;11.966;2023-08-21T02:04:31;19.85;;;17.77;;
23388;SDS011;11867;51.198;11.966;2023-08-21T02:06:16;19.13;;;17.23;;
23388;SDS011;11867;51.198;11.966;2023-08-21T02:07:44;22.67;;;18.35;;
23388;SDS011;11867;51.198;11.966;2023-08-21T02:09:31;20.40;;;18.25;;
23388;SDS011;11867;51.198;11.966;2023-08-21T02:11:17;19.85;;;17.67;;
23388;SDS011;11867;51.198;11.966;2023-08-21T02:12:50;20.27;;;18.17;;
23388;SDS011;11867;51.198;11.966;2023-08-21T02:14:13;20.45;;;18.35;;
23388;SDS011;11867;51.198;11.966;2023-08-21T02:16:04;20.85;;;17.70;;
23388;SDS011;11867;51.198;11.966;2023-08-21T02:17:34;22.15;;;19.45;;
23388;SDS011;11867;51.198;11.966;2023-08-21T02:20:28;18.67;;;16.67;;
23388;SDS011;11867;51.198;11.966;2023-08-21T02:21:53;22.00;;;18.30;;
23388;SDS011;11867;51.198;11.966;2023-08-21T02:23:30;21.75;;;17.90;;
23388;SDS011;11867;51.198;11.966;2023-08-21T02:25:01;20.08;;;18.13;;
23388;SDS011;11867;51.198;11.966;2023-08-21T02:26:30;20.95;;;17.25;;
23388;SDS011;11867;51.198;11.966;2023-08-21T02:29:44;22.77;;;17.80;;
23388;SDS011;11867;51.198;11.966;2023-08-21T02:31:10;19.38;;;17.33;;
23388;SDS011;11867;51.198;11.966;2023-08-21T02:32:44;19.52;;;17.25;;
23388;SDS011;11867;51.198;11.966;2023-08-21T02:34:26;23.17;;;17.40;;
23388;SDS011;11867;51.198;11.966;2023-08-21T02:35:58;22.63;;;17.73;;
23388;SDS011;11867;51.198;11.966;2023-08-21T02:37:29;20.50;;;17.88;;
23388;SDS011;11867;51.198;11.966;2023-08-21T02:38:51;18.75;;;16.67;;
23388;SDS011;11867;51.198;11.966;2023-08-21T02:40:33;20.35;;;17.85;;
23388;SDS011;11867;51.198;11.966;2023-08-21T02:44:07;21.05;;;18.25;;
23388;SDS011;11867;51.198;11.966;2023-08-21T02:45:34;22.08;;;18.90;;
23388;SDS011;11867;51.198;11.966;2023-08-21T02:47:04;22.48;;;18.85;;
23388;SDS011;11867;51.198;11.966;2023-08-21T02:48:30;35.25;;;20.58;;
23388;SDS011;11867;51.198;11.966;2023-08-21T02:50:06;21.05;;;18.85;;
23388;SDS011;11867;51.198;11.966;2023-08-21T02:51:30;20.50;;;17.20;;
23388;SDS011;11867;51.198;11.966;2023-08-21T02:52:59;22.48;;;17.95;;
23388;SDS011;11867;51.198;11.966;2023-08-21T02:54:36;23.42;;;17.75;;
23388;SDS011;11867;51.198;11.966;2023-08-21T02:56:08;24.92;;;17.52;;
23388;SDS011;11867;51.198;11.966;2023-08-21T02:57:51;21.17;;;18.90;;
23388;SDS011;11867;51.198;11.966;2023-08-21T02:59:40;20.27;;;18.15;;
23388;SDS011;11867;51.198;11.966;2023-08-21T03:01:05;21.30;;;19.08;;
23388;SDS011;11867;51.198;11.966;2023-08-21T03:02:42;25.10;;;19.50;;
23388;SDS011;11867;51.198;11.966;2023-08-21T03:04:19;22.58;;;19.52;;
23388;SDS011;11867;51.198;11.966;2023-08-21T03:05:44;22.02;;;19.73;;
23388;SDS011;11867;51.198;11.966;2023-08-21T03:07:08;22.30;;;19.88;;
23388;SDS011;11867;51.198;11.966;2023-08-21T03:08:35;24.55;;;19.67;;
23388;SDS011;11867;51.198;11.966;2023-08-21T03:09:58;21.40;;;19.10;;
23388;SDS011;11867;51.198;11.966;2023-08-21T03:11:29;21.75;;;19.45;;
23388;SDS011;11867;51.198;11.966;2023-08-21T03:14:57;26.50;;;19.92;;
23388;SDS011;11867;51.198;11.966;2023-08-21T03:16:21;22.95;;;19.40;;
23388;SDS011;11867;51.198;11.966;2023-08-21T03:17:49;25.23;;;18.70;;
23388;SDS011;11867;51.198;11.966;2023-08-21T03:20:08;20.42;;;18.17;;
23388;SDS011;11867;51.198;11.966;2023-08-21T03:22:11;20.10;;;17.88;;
23388;SDS011;11867;51.198;11.966;2023-08-21T03:27:01;23.30;;;19.40;;
23388;SDS011;11867;51.198;11.966;2023-08-21T03:29:11;21.55;;;19.25;;
23388;SDS011;11867;51.198;11.966;2023-08-21T03:31:48;20.65;;;17.80;;
23388;SDS011;11867;51.198;11.966;2023-08-21T03:33:40;20.55;;;18.35;;
23388;SDS011;11867;51.198;11.966;2023-08-21T03:35:04;24.38;;;19.42;;
23388;SDS011;11867;51.198;11.966;2023-08-21T03:36:28;20.77;;;18.60;;
23388;SDS011;11867;51.198;11.966;2023-08-21T03:37:53;20.48;;;18.13;;
23388;SDS011;11867;51.198;11.966;2023-08-21T03:39:27;21.17;;;18.73;;
23388;SDS011;11867;51.198;11.966;2023-08-21T03:40:55;19.98;;;17.65;;
23388;SDS011;11867;51.198;11.966;2023-08-21T03:42:27;18.50;;;16.70;;
23388;SDS011;11867;51.198;11.966;2023-08-21T03:43:59;19.02;;;16.00;;
23388;SDS011;11867;51.198;11.966;2023-08-21T03:45:29;18.27;;;16.45;;
23388;SDS011;11867;51.198;11.966;2023-08-21T03:47:05;17.70;;;15.82;;
23388;SDS011;11867;51.198;11.966;2023-08-21T03:48:34;17.48;;;15.75;;
23388;SDS011;11867;51.198;11.966;2023-08-21T03:50:00;16.70;;;15.20;;
23388;SDS011;11867;51.198;11.966;2023-08-21T03:51:29;16.92;;;15.13;;
23388;SDS011;11867;51.198;11.966;2023-08-21T03:53:00;16.05;;;14.27;;
23388;SDS011;11867;51.198;11.966;2023-08-21T03:54:22;16.33;;;14.73;;
23388;SDS011;11867;51.198;11.966;2023-08-21T03:55:45;16.67;;;14.90;;
23388;SDS011;11867;51.198;11.966;2023-08-21T03:57:21;17.05;;;15.38;;
23388;SDS011;11867;51.198;11.966;2023-08-21T03:58:54;17.77;;;15.85;;
23388;SDS011;11867;51.198;11.966;2023-08-21T04:00:16;17.55;;;15.95;;
23388;SDS011;11867;51.198;11.966;2023-08-21T04:01:41;16.65;;;15.05;;
23388;SDS011;11867;51.198;11.966;2023-08-21T04:03:04;16.88;;;15.20;;
23388;SDS011;11867;51.198;11.966;2023-08-21T04:04:27;20.67;;;16.48;;
23388;SDS011;11867;51.198;11.966;2023-08-21T04:05:53;18.80;;;16.95;;
23388;SDS011;11867;51.198;11.966;2023-08-21T04:07:16;19.58;;;17.50;;
23388;SDS011;11867;51.198;11.966;2023-08-21T04:08:47;19.63;;;16.98;;
23388;SDS011;11867;51.198;11.966;2023-08-21T04:10:12;19.48;;;16.90;;
23388;SDS011;11867;51.198;11.966;2023-08-21T04:11:41;20.13;;;16.88;;
23388;SDS011;11867;51.198;11.966;2023-08-21T04:13:08;20.13;;;16.98;;
23388;SDS011;11867;51.198;11.966;2023-08-21T04:14:39;18.33;;;16.35;;
23388;SDS011;11867;51.198;11.966;2023-08-21T04:16:10;17.98;;;16.20;;
23388;SDS011;11867;51.198;11.966;2023-08-21T04:17:42;20.98;;;17.45;;
23388;SDS011;11867;51.198;11.966;2023-08-21T04:19:04;21.35;;;17.23;;
23388;SDS011;11867;51.198;11.966;2023-08-21T04:20:35;19.55;;;17.42;;
23388;SDS011;11867;51.198;11.966;2023-08-21T04:22:08;20.63;;;18.17;;
23388;SDS011;11867;51.198;11.966;2023-08-21T04:23:41;18.88;;;17.08;;
23388;SDS011;11867;51.198;11.966;2023-08-21T04:25:15;20.60;;;18.00;;
23388;SDS011;11867;51.198;11.966;2023-08-21T04:26:49;19.98;;;17.88;;
23388;SDS011;11867;51.198;11.966;2023-08-21T04:28:13;23.60;;;18.23;;
23388;SDS011;11867;51.198;11.966;2023-08-21T04:29:45;22.98;;;17.50;;
23388;SDS011;11867;51.198;11.966;2023-08-21T04:31:10;19.08;;;17.13;;
23388;SDS011;11867;51.198;11.966;2023-08-21T04:32:41;18.77;;;16.85;;
23388;SDS011;11867;51.198;11.966;2023-08-21T04:34:06;21.48;;;19.08;;
23388;SDS011;11867;51.198;11.966;2023-08-21T04:35:43;23.23;;;19.02;;
23388;SDS011;11867;51.198;11.966;2023-08-21T04:37:11;18.90;;;16.90;;
23388;SDS011;11867;51.198;11.966;2023-08-21T04:38:34;25.10;;;18.55;;
23388;SDS011;11867;51.198;11.966;2023-08-21T04:39:56;19.80;;;17.70;;
23388;SDS011;11867;51.198;11.966;2023-08-21T04:41:19;22.90;;;19.38;;
23388;SDS011;11867;51.198;11.966;2023-08-21T04:42:42;22.30;;;19.75;;
23388;SDS011;11867;51.198;11.966;2023-08-21T04:44:05;23.27;;;19.50;;
23388;SDS011;11867;51.198;11.966;2023-08-21T04:45:28;22.65;;;20.45;;
23388;SDS011;11867;51.198;11.966;2023-08-21T04:46:52;23.55;;;21.13;;
23388;SDS011;11867;51.198;11.966;2023-08-21T04:48:16;24.15;;;21.23;;
23388;SDS011;11867;51.198;11.966;2023-08-21T04:50:01;22.95;;;19.60;;
23388;SDS011;11867;51.198;11.966;2023-08-21T04:51:25;20.17;;;18.00;;
23388;SDS011;11867;51.198;11.966;2023-08-21T04:52:49;23.35;;;19.13;;
23388;SDS011;11867;51.198;11.966;2023-08-21T04:54:13;19.58;;;17.55;;
23388;SDS011;11867;51.198;11.966;2023-08-21T04:55:40;20.27;;;17.35;;
23388;SDS011;11867;51.198;11.966;2023-08-21T04:57:09;23.83;;;18.30;;
23388;SDS011;11867;51.198;11.966;2023-08-21T04:58:33;23.27;;;18.25;;
23388;SDS011;11867;51.198;11.966;2023-08-21T05:00:18;20.58;;;18.40;;
23388;SDS011;11867;51.198;11.966;2023-08-21T05:01:49;19.40;;;17.35;;
23388;SDS011;11867;51.198;11.966;2023-08-21T05:03:18;18.80;;;16.73;;
23388;SDS011;11867;51.198;11.966;2023-08-21T05:04:50;21.50;;;18.63;;
23388;SDS011;11867;51.198;11.966;2023-08-21T05:06:12;20.40;;;18.30;;
23388;SDS011;11867;51.198;11.966;2023-08-21T05:07:41;19.02;;;17.02;;
23388;SDS011;11867;51.198;11.966;2023-08-21T05:09:06;20.67;;;18.48;;
23388;SDS011;11867;51.198;11.966;2023-08-21T05:10:43;18.00;;;16.30;;
23388;SDS011;11867;51.198;11.966;2023-08-21T05:12:12;22.25;;;16.48;;
23388;SDS011;11867;51.198;11.966;2023-08-21T05:13:44;23.15;;;18.02;;
23388;SDS011;11867;51.198;11.966;2023-08-21T05:15:11;20.83;;;17.77;;
23388;SDS011;11867;51.198;11.966;2023-08-21T05:16:49;20.13;;;18.05;;
23388;SDS011;11867;51.198;11.966;2023-08-21T05:18:11;18.42;;;16.45;;
23388;SDS011;11867;51.198;11.966;2023-08-21T05:19:43;20.50;;;16.98;;
23388;SDS011;11867;51.198;11.966;2023-08-21T05:21:09;18.75;;;16.85;;
23388;SDS011;11867;51.198;11.966;2023-08-21T05:23:04;18.83;;;16.92;;
23388;SDS011;11867;51.198;11.966;2023-08-21T05:24:30;19.08;;;17.02;;
23388;SDS011;11867;51.198;11.966;2023-08-21T05:25:58;22.05;;;17.85;;
23388;SDS011;11867;51.198;11.966;2023-08-21T05:27:38;22.42;;;17.83;;
23388;SDS011;11867;51.198;11.966;2023-08-21T05:29:05;20.55;;;17.58;;
23388;SDS011;11867;51.198;11.966;2023-08-21T05:30:46;19.55;;;17.52;;
23388;SDS011;11867;51.198;11.966;2023-08-21T05:32:29;19.92;;;17.63;;
23388;SDS011;11867;51.198;11.966;2023-08-21T05:34:04;19.58;;;17.58;;
23388;SDS011;11867;51.198;11.966;2023-08-21T05:35:40;19.65;;;17.58;;
23388;SDS011;11867;51.198;11.966;2023-08-21T05:37:13;20.85;;;17.02;;
23388;SDS011;11867;51.198;11.966;2023-08-21T05:38:56;18.27;;;16.58;;
23388;SDS011;11867;51.198;11.966;2023-08-21T05:40:22;17.80;;;15.90;;
23388;SDS011;11867;51.198;11.966;2023-08-21T05:41:58;16.08;;;13.15;;
23388;SDS011;11867;51.198;11.966;2023-08-21T05:43:34;15.98;;;14.38;;
23388;SDS011;11867;51.198;11.966;2023-08-21T05:45:05;19.17;;;15.48;;
23388;SDS011;11867;51.198;11.966;2023-08-21T05:46:38;16.75;;;15.10;;
23388;SDS011;11867;51.198;11.966;2023-08-21T05:48:00;15.80;;;13.98;;
23388;SDS011;11867;51.198;11.966;2023-08-21T05:49:42;16.08;;;13.73;;
23388;SDS011;11867;51.198;11.966;2023-08-21T05:51:29;16.38;;;13.75;;
23388;SDS011;11867;51.198;11.966;2023-08-21T05:53:13;17.27;;;13.10;;
23388;SDS011;11867;51.198;11.966;2023-08-21T05:54:56;16.65;;;12.90;;
23388;SDS011;11867;51.198;11.966;2023-08-21T05:56:40;12.00;;;10.90;;
23388;SDS011;11867;51.198;11.966;2023-08-21T05:58:27;12.77;;;11.27;;
23388;SDS011;11867;51.198;11.966;2023-08-21T06:00:08;14.02;;;12.40;;
23388;SDS011;11867;51.198;11.966;2023-08-21T06:02:12;12.90;;;11.55;;
23388;SDS011;11867;51.198;11.966;2023-08-21T06:03:53;12.85;;;11.38;;
23388;SDS011;11867;51.198;11.966;2023-08-21T06:05:36;13.35;;;11.73;;
23388;SDS011;11867;51.198;11.966;2023-08-21T06:07:58;13.05;;;10.43;;
23388;SDS011;11867;51.198;11.966;2023-08-21T06:09:44;14.05;;;11.27;;
23388;SDS011;11867;51.198;11.966;2023-08-21T06:11:06;13.63;;;10.52;;
23388;SDS011;11867;51.198;11.966;2023-08-21T06:12:41;13.35;;;11.13;;
23388;SDS011;11867;51.198;11.966;2023-08-21T06:14:14;14.77;;;10.98;;
23388;SDS011;11867;51.198;11.966;2023-08-21T06:15:39;13.13;;;11.45;;
23388;SDS011;11867;51.198;11.966;2023-08-21T06:17:14;15.25;;;12.70;;
23388;SDS011;11867;51.198;11.966;2023-08-21T06:18:50;14.35;;;12.18;;
23388;SDS011;11867;51.198;11.966;2023-08-21T06:20:24;12.50;;;10.77;;
23388;SDS011;11867;51.198;11.966;2023-08-21T06:22:06;18.92;;;15.75;;
23388;SDS011;11867;51.198;11.966;2023-08-21T06:23:34;17.90;;;15.95;;
23388;SDS011;11867;51.198;11.966;2023-08-21T06:25:02;21.15;;;16.92;;
23388;SDS011;11867;51.198;11.966;2023-08-21T06:26:29;21.05;;;18.85;;
23388;SDS011;11867;51.198;11.966;2023-08-21T06:28:09;21.05;;;18.95;;
23388;SDS011;11867;51.198;11.966;2023-08-21T06:29:50;25.13;;;20.92;;
23388;SDS011;11867;51.198;11.966;2023-08-21T06:31:18;21.30;;;19.05;;
23388;SDS011;11867;51.198;11.966;2023-08-21T06:32:59;27.85;;;21.15;;
23388;SDS011;11867;51.198;11.966;2023-08-21T06:34:25;22.15;;;19.85;;
23388;SDS011;11867;51.198;11.966;2023-08-21T06:35:47;19.67;;;17.67;;
23388;SDS011;11867;51.198;11.966;2023-08-21T06:37:13;16.30;;;14.45;;
23388;SDS011;11867;51.198;11.966;2023-08-21T06:38:40;14.40;;;12.18;;
23388;SDS011;11867;51.198;11.966;2023-08-21T06:40:06;14.07;;;11.50;;
23388;SDS011;11867;51.198;11.966;2023-08-21T06:41:29;11.82;;;10.73;;
23388;SDS011;11867;51.198;11.966;2023-08-21T06:42:58;12.35;;;9.98;;
23388;SDS011;11867;51.198;11.966;2023-08-21T06:44:21;9.55;;;8.48;;
23388;SDS011;11867;51.198;11.966;2023-08-21T06:45:44;12.23;;;9.50;;
23388;SDS011;11867;51.198;11.966;2023-08-21T06:47:06;10.40;;;8.45;;
23388;SDS011;11867;51.198;11.966;2023-08-21T06:48:29;12.63;;;8.43;;
23388;SDS011;11867;51.198;11.966;2023-08-21T06:49:53;12.10;;;9.23;;
23388;SDS011;11867;51.198;11.966;2023-08-21T06:51:17;12.77;;;8.77;;
23388;SDS011;11867;51.198;11.966;2023-08-21T06:52:43;10.20;;;7.65;;
23388;SDS011;11867;51.198;11.966;2023-08-21T06:54:09;9.48;;;8.15;;
23388;SDS011;11867;51.198;11.966;2023-08-21T06:55:36;9.13;;;7.70;;
23388;SDS011;11867;51.198;11.966;2023-08-21T06:57:02;9.27;;;7.80;;
23388;SDS011;11867;51.198;11.966;2023-08-21T06:58:26;8.82;;;7.80;;
23388;SDS011;11867;51.198;11.966;2023-08-21T06:59:48;8.50;;;7.70;;
23388;SDS011;11867;51.198;11.966;2023-08-21T07:01:19;10.55;;;7.50;;
23388;SDS011;11867;51.198;11.966;2023-08-21T07:03:10;9.43;;;7.50;;
23388;SDS011;11867;51.198;11.966;2023-08-21T07:04:34;8.40;;;7.25;;
23388;SDS011;11867;51.198;11.966;2023-08-21T07:05:58;9.27;;;7.57;;
23388;SDS011;11867;51.198;11.966;2023-08-21T07:07:25;9.35;;;7.75;;
23388;SDS011;11867;51.198;11.966;2023-08-21T07:08:55;8.77;;;7.25;;
23388;SDS011;11867;51.198;11.966;2023-08-21T07:10:30;7.63;;;6.93;;
23388;SDS011;11867;51.198;11.966;2023-08-21T07:11:58;11.68;;;7.75;;
23388;SDS011;11867;51.198;11.966;2023-08-21T07:13:25;9.05;;;7.97;;
23388;SDS011;11867;51.198;11.966;2023-08-21T07:14:49;12.10;;;8.32;;
23388;SDS011;11867;51.198;11.966;2023-08-21T07:16:18;10.80;;;8.40;;
23388;SDS011;11867;51.198;11.966;2023-08-21T07:17:41;11.23;;;8.85;;
23388;SDS011;11867;51.198;11.966;2023-08-21T07:19:04;12.55;;;8.60;;
23388;SDS011;11867;51.198;11.966;2023-08-21T07:20:51;13.00;;;8.35;;
23388;SDS011;11867;51.198;11.966;2023-08-21T07:22:15;10.05;;;7.95;;
23388;SDS011;11867;51.198;11.966;2023-08-21T07:23:38;9.95;;;8.18;;
23388;SDS011;11867;51.198;11.966;2023-08-21T07:25:04;9.75;;;8.75;;
23388;SDS011;11867;51.198;11.966;2023-08-21T07:26:35;13.68;;;9.65;;
23388;SDS011;11867;51.198;11.966;2023-08-21T07:28:01;12.00;;;8.20;;
23388;SDS011;11867;51.198;11.966;2023-08-21T07:29:23;12.88;;;10.20;;
23388;SDS011;11867;51.198;11.966;2023-08-21T07:30:46;11.73;;;9.15;;
23388;SDS011;11867;51.198;11.966;2023-08-21T07:32:10;10.90;;;7.80;;
23388;SDS011;11867;51.198;11.966;2023-08-21T07:33:40;10.45;;;8.05;;
23388;SDS011;11867;51.198;11.966;2023-08-21T07:35:02;8.18;;;6.72;;
23388;SDS011;11867;51.198;11.966;2023-08-21T07:36:31;11.80;;;6.68;;
23388;SDS011;11867;51.198;11.966;2023-08-21T07:37:53;11.07;;;6.80;;
23388;SDS011;11867;51.198;11.966;2023-08-21T07:39:31;7.93;;;5.72;;
23388;SDS011;11867;51.198;11.966;2023-08-21T07:41:03;10.15;;;6.82;;
23388;SDS011;11867;51.198;11.966;2023-08-21T07:42:28;9.35;;;6.43;;
23388;SDS011;11867;51.198;11.966;2023-08-21T07:43:54;8.05;;;6.57;;
23388;SDS011;11867;51.198;11.966;2023-08-21T07:45:30;6.43;;;5.82;;
23388;SDS011;11867;51.198;11.966;2023-08-21T07:46:56;9.10;;;6.35;;
23388;SDS011;11867;51.198;11.966;2023-08-21T07:48:18;8.00;;;6.20;;
23388;SDS011;11867;51.198;11.966;2023-08-21T07:49:42;7.65;;;5.85;;
23388;SDS011;11867;51.198;11.966;2023-08-21T07:51:13;9.35;;;5.65;;
23388;SDS011;11867;51.198;11.966;2023-08-21T07:52:37;6.80;;;5.88;;
23388;SDS011;11867;51.198;11.966;2023-08-21T07:54:01;7.47;;;5.63;;
23388;SDS011;11867;51.198;11.966;2023-08-21T07:55:23;15.95;;;6.53;;
23388;SDS011;11867;51.198;11.966;2023-08-21T07:56:46;7.47;;;5.50;;
23388;SDS011;11867;51.198;11.966;2023-08-21T07:58:11;9.70;;;5.18;;
23388;SDS011;11867;51.198;11.966;2023-08-21T07:59:35;6.60;;;5.18;;
23388;SDS011;11867;51.198;11.966;2023-08-21T08:01:01;6.95;;;5.65;;
23388;SDS011;11867;51.198;11.966;2023-08-21T08:02:26;13.10;;;5.38;;
23388;SDS011;11867;51.198;11.966;2023-08-21T08:03:51;8.90;;;5.20;;
23388;SDS011;11867;51.198;11.966;2023-08-21T08:05:13;9.52;;;5.55;;
23388;SDS011;11867;51.198;11.966;2023-08-21T08:06:37;8.48;;;5.40;;
23388;SDS011;11867;51.198;11.966;2023-08-21T08:07:59;9.93;;;5.60;;
23388;SDS011;11867;51.198;11.966;2023-08-21T08:09:23;10.32;;;5.70;;
23388;SDS011;11867;51.198;11.966;2023-08-21T08:10:45;8.50;;;5.30;;
23388;SDS011;11867;51.198;11.966;2023-08-21T08:12:09;9.90;;;5.35;;
23388;SDS011;11867;51.198;11.966;2023-08-21T08:13:32;7.95;;;5.25;;
23388;SDS011;11867;51.198;11.966;2023-08-21T08:14:56;9.40;;;5.53;;
23388;SDS011;11867;51.198;11.966;2023-08-21T08:16:18;11.82;;;5.72;;
23388;SDS011;11867;51.198;11.966;2023-08-21T08:17:42;8.55;;;5.50;;
23388;SDS011;11867;51.198;11.966;2023-08-21T08:19:04;8.38;;;5.20;;
23388;SDS011;11867;51.198;11.966;2023-08-21T08:20:28;8.43;;;5.50;;
23388;SDS011;11867;51.198;11.966;2023-08-21T08:21:53;8.95;;;5.47;;
23388;SDS011;11867;51.198;11.966;2023-08-21T08:23:19;11.30;;;5.70;;
23388;SDS011;11867;51.198;11.966;2023-08-21T08:24:42;6.80;;;5.88;;
23388;SDS011;11867;51.198;11.966;2023-08-21T08:26:12;7.00;;;5.20;;
23388;SDS011;11867;51.198;11.966;2023-08-21T08:27:35;6.78;;;5.45;;
23388;SDS011;11867;51.198;11.966;2023-08-21T08:29:00;7.40;;;5.20;;
23388;SDS011;11867;51.198;11.966;2023-08-21T08:30:25;5.80;;;4.70;;
23388;SDS011;11867;51.198;11.966;2023-08-21T08:31:51;5.82;;;5.00;;
23388;SDS011;11867;51.198;11.966;2023-08-21T08:33:13;8.80;;;5.50;;
23388;SDS011;11867;51.198;11.966;2023-08-21T08:34:37;6.25;;;4.97;;
23388;SDS011;11867;51.198;11.966;2023-08-21T08:36:00;10.50;;;4.93;;
23388;SDS011;11867;51.198;11.966;2023-08-21T08:37:23;8.18;;;4.30;;
23388;SDS011;11867;51.198;11.966;2023-08-21T08:38:46;8.20;;;4.72;;
23388;SDS011;11867;51.198;11.966;2023-08-21T08:40:09;9.18;;;5.05;;
23388;SDS011;11867;51.198;11.966;2023-08-21T08:41:37;12.60;;;4.78;;
23388;SDS011;11867;51.198;11.966;2023-08-21T08:43:05;6.93;;;4.97;;
23388;SDS011;11867;51.198;11.966;2023-08-21T08:44:34;7.32;;;4.50;;
23388;SDS011;11867;51.198;11.966;2023-08-21T08:45:57;9.30;;;5.68;;
23388;SDS011;11867;51.198;11.966;2023-08-21T08:47:23;11.52;;;5.10;;
23388;SDS011;11867;51.198;11.966;2023-08-21T08:49:00;5.95;;;4.68;;
23388;SDS011;11867;51.198;11.966;2023-08-21T08:50:28;7.72;;;4.35;;
23388;SDS011;11867;51.198;11.966;2023-08-21T08:51:51;6.03;;;4.40;;
23388;SDS011;11867;51.198;11.966;2023-08-21T08:53:15;6.18;;;4.45;;
23388;SDS011;11867;51.198;11.966;2023-08-21T08:54:39;7.30;;;4.50;;
23388;SDS011;11867;51.198;11.966;2023-08-21T08:56:02;5.75;;;4.55;;
23388;SDS011;11867;51.198;11.966;2023-08-21T08:57:25;4.68;;;4.18;;
23388;SDS011;11867;51.198;11.966;2023-08-21T08:58:57;6.07;;;3.90;;